Time;durP1;ratioP1;P1;durP2;ratioP2;P2;SDS_P1;SDS_P2;PMS_P1;PMS_P2;Temp;Humidity;BMP_temperature;BMP_pressure;BME280_temperature;BME280_humidity;BME280_pressure;Samples;Min_cycle;Max_cycle;Signal;HPM_P1;HPM_P2
2022/09/28 00:00:19;;;;;;;9.03;8.33;;;;;;;8.92;96.13;98636.53;5064948;28;20229;-79
2022/09/28 00:02:45;;;;;;;8.47;7.83;;;;;;;8.90;95.91;98645.28;5058397;28;20700;-79
2022/09/28 00:05:12;;;;;;;8.47;7.83;;;;;;;8.84;95.82;98636.00;5056566;28;20734;-79
2022/09/28 00:07:38;;;;;;;8.80;8.10;;;;;;;8.83;95.66;98641.28;5056946;28;20212;-78
2022/09/28 00:10:06;;;;;;;8.50;7.80;;;;;;;8.78;95.63;98638.88;5056292;28;20207;-79
2022/09/28 00:12:33;;;;;;;8.03;7.43;;;;;;;8.75;95.81;98631.16;5056716;28;20201;-79
2022/09/28 00:14:59;;;;;;;7.57;6.97;;;;;;;8.71;95.82;98627.00;5056505;28;20311;-79
2022/09/28 00:17:27;;;;;;;7.33;6.57;;;;;;;8.71;95.40;98627.84;5056690;28;20683;-79
2022/09/28 00:19:56;;;;;;;7.37;6.77;;;;;;;8.67;94.83;98644.47;5056710;28;20207;-79
2022/09/28 00:22:23;;;;;;;6.50;5.90;;;;;;;8.61;95.03;98647.34;5056908;28;20232;-79
2022/09/28 00:24:49;;;;;;;7.43;5.70;;;;;;;8.64;94.34;98655.03;5056421;28;20714;-79
2022/09/28 00:27:16;;;;;;;6.50;5.90;;;;;;;8.57;94.08;98669.16;5056721;28;20207;-79
2022/09/28 00:29:43;;;;;;;6.33;5.83;;;;;;;8.60;94.43;98657.78;5056103;28;20589;-79
2022/09/28 00:32:12;;;;;;;6.10;5.70;;;;;;;8.58;94.67;98646.59;5056417;28;20651;-79
2022/09/28 00:34:44;;;;;;;6.53;5.93;;;;;;;8.54;94.94;98638.94;5056956;28;20667;-79
2022/09/28 00:37:12;;;;;;;6.43;5.97;;;;;;;8.55;95.35;98631.97;5056781;28;20256;-79
2022/09/28 00:39:40;;;;;;;6.10;5.60;;;;;;;8.58;94.84;98612.78;5056709;28;20201;-79
2022/09/28 00:42:12;;;;;;;6.13;5.53;;;;;;;8.57;95.24;98617.16;5056097;28;20202;-79
2022/09/28 00:44:48;;;;;;;5.47;5.07;;;;;;;8.57;95.51;98611.13;5052539;28;20592;-78
2022/09/28 00:47:39;;;;;;;6.07;5.20;;;;;;;8.53;95.31;98603.44;5053028;28;20205;-78
2022/09/28 00:50:14;;;;;;;5.50;5.00;;;;;;;8.48;95.05;98600.19;5052212;28;20627;-79
2022/09/28 00:52:44;;;;;;;6.50;5.90;;;;;;;8.45;94.89;98592.50;5052614;28;20633;-78
2022/09/28 00:55:15;;;;;;;6.00;5.50;;;;;;;8.39;95.97;98566.72;5052842;28;20284;-78
2022/09/28 00:57:45;;;;;;;7.83;7.13;;;;;;;8.40;95.75;98567.53;5052346;28;20226;-78
2022/09/28 01:00:13;;;;;;;7.57;6.93;;;;;;;8.39;96.12;98558.91;5052245;28;20205;-78
2022/09/28 01:02:40;;;;;;;7.77;6.60;;;;;;;8.41;96.36;98545.84;5052031;28;20560;-78
2022/09/28 01:05:09;;;;;;;5.87;5.47;;;;;;;8.43;96.40;98537.09;5052149;28;20713;-78
2022/09/28 01:07:37;;;;;;;5.70;5.20;;;;;;;8.47;96.48;98535.22;5052419;28;20216;-78
2022/09/28 01:10:04;;;;;;;6.43;5.93;;;;;;;8.49;95.94;98539.44;5052570;28;20295;-79
2022/09/28 01:12:31;;;;;;;6.07;5.60;;;;;;;8.55;96.01;98534.00;5052477;28;20214;-78
2022/09/28 01:14:59;;;;;;;5.90;5.40;;;;;;;8.58;95.90;98543.41;5051967;28;20292;-78
2022/09/28 01:17:33;;;;;;;6.13;5.63;;;;;;;8.55;96.18;98539.19;5052250;28;20221;-78
2022/09/28 01:20:23;;;;;;;5.97;5.57;;;;;;;8.59;96.93;98523.47;5052604;28;20204;-78
2022/09/28 01:23:31;;;;;;;5.63;5.20;;;;;;;8.59;96.81;98526.09;5052451;28;20209;-78
2022/09/28 01:26:17;;;;;;;5.33;4.83;;;;;;;8.58;96.78;98524.38;5052151;28;20287;-79
2022/09/28 01:28:46;;;;;;;5.77;5.17;;;;;;;8.62;96.00;98524.19;5051778;28;20215;-78
2022/09/28 01:31:15;;;;;;;5.03;4.67;;;;;;;8.65;96.14;98523.22;5052540;28;20206;-78
2022/09/28 01:33:46;;;;;;;5.90;5.50;;;;;;;8.68;96.59;98525.69;5052166;28;20259;-78
2022/09/28 01:36:17;;;;;;;5.50;5.00;;;;;;;8.67;96.98;98513.59;5051761;28;20226;-78
2022/09/28 01:38:49;;;;;;;5.53;5.13;;;;;;;8.69;96.85;98514.38;5051790;28;20762;-78
2022/09/28 01:41:17;;;;;;;5.13;4.67;;;;;;;8.74;96.51;98512.41;5052180;28;20255;-78
2022/09/28 01:43:48;;;;;;;5.93;4.90;;;;;;;8.74;96.37;98509.81;5051762;28;20794;-78
2022/09/28 01:46:20;;;;;;;6.33;5.10;;;;;;;8.71;97.00;98495.19;5051802;28;20287;-78
2022/09/28 01:48:49;;;;;;;5.87;5.40;;;;;;;8.71;97.74;98481.34;5051497;28;20202;-78
2022/09/28 01:51:21;;;;;;;5.50;5.07;;;;;;;8.73;97.34;98476.91;5052044;28;20220;-78
2022/09/28 01:53:53;;;;;;;5.20;4.80;;;;;;;8.75;97.53;98470.72;5051969;28;20260;-78
2022/09/28 01:56:25;;;;;;;4.77;4.37;;;;;;;8.78;97.93;98458.50;5051444;28;20225;-78
2022/09/28 01:58:55;;;;;;;5.43;4.93;;;;;;;8.81;98.01;98455.78;5051565;28;20205;-78
2022/09/28 02:01:37;;;;;;;5.90;5.50;;;;;;;8.82;97.50;98468.72;5051839;28;20201;-78
2022/09/28 02:04:08;;;;;;;5.40;5.00;;;;;;;8.85;97.34;98467.75;5051746;28;20205;-78
2022/09/28 02:06:40;;;;;;;5.97;5.57;;;;;;;8.83;97.25;98466.97;5051631;28;20278;-78
2022/09/28 02:09:11;;;;;;;5.73;4.93;;;;;;;8.86;97.37;98472.88;5053529;28;20197;-78
2022/09/28 02:11:43;;;;;;;5.47;5.07;;;;;;;8.89;97.21;98464.09;5055525;28;20259;-78
2022/09/28 02:14:14;;;;;;;5.30;4.97;;;;;;;8.85;97.82;98459.94;5055176;28;20652;-78
2022/09/28 02:16:42;;;;;;;4.87;4.57;;;;;;;8.82;97.77;98447.91;5055340;28;20201;-79
2022/09/28 02:19:11;;;;;;;4.80;4.40;;;;;;;8.80;97.69;98446.28;5055226;28;20215;-78
2022/09/28 02:21:43;;;;;;;4.70;4.30;;;;;;;8.83;97.38;98438.34;5055184;28;20622;-78
2022/09/28 02:24:15;;;;;;;5.17;4.77;;;;;;;8.78;98.10;98435.09;5055110;28;20611;-78
2022/09/28 02:26:48;;;;;;;5.17;4.77;;;;;;;8.81;98.87;98415.00;5055014;28;20347;-78
2022/09/28 02:29:14;;;;;;;4.67;4.37;;;;;;;8.77;98.33;98410.84;5054772;28;20205;-78
2022/09/28 02:31:41;;;;;;;4.97;4.63;;;;;;;8.77;98.94;98404.81;5054998;28;20213;-79
2022/09/28 02:34:09;;;;;;;4.80;4.50;;;;;;;8.73;98.48;98412.72;5054910;28;20902;-78
2022/09/28 02:36:35;;;;;;;4.90;4.50;;;;;;;8.77;98.55;98410.84;5054687;28;20209;-78
2022/09/28 02:39:02;;;;;;;5.60;5.20;;;;;;;8.74;98.63;98397.97;5054998;28;20618;-78
2022/09/28 02:41:43;;;;;;;6.90;6.40;;;;;;;8.77;98.65;98403.03;5054800;28;20255;-78
2022/09/28 02:44:21;;;;;;;5.70;4.80;;;;;;;8.77;97.99;98410.00;5054703;28;20263;-78
2022/09/28 02:46:57;;;;;;;5.10;4.60;;;;;;;8.73;98.31;98415.31;5054672;28;20209;-78
2022/09/28 02:49:30;;;;;;;4.80;4.47;;;;;;;8.76;98.11;98422.19;5054500;28;20209;-78
2022/09/28 02:52:13;;;;;;;4.70;4.40;;;;;;;8.77;97.94;98407.41;5055056;28;20209;-79
2022/09/28 02:55:01;;;;;;;5.10;4.70;;;;;;;8.84;98.36;98408.81;5059457;28;20637;-78
2022/09/28 02:57:42;;;;;;;7.27;4.70;;;;;;;8.83;98.17;98415.78;5054483;28;20655;-78
2022/09/28 03:00:15;;;;;;;5.30;4.90;;;;;;;8.84;98.06;98408.81;5054419;28;20205;-78
2022/09/28 03:02:50;;;;;;;5.57;5.13;;;;;;;8.86;98.21;98401.78;5055406;28;20190;-78
2022/09/28 03:05:22;;;;;;;5.40;5.00;;;;;;;8.83;98.00;98409.72;5054815;28;20228;-78
2022/09/28 03:07:57;;;;;;;5.60;5.20;;;;;;;8.85;98.32;98400.09;5055521;28;20197;-78
2022/09/28 03:10:29;;;;;;;6.20;5.07;;;;;;;8.84;98.28;98395.78;5054388;28;20254;-78
2022/09/28 03:12:57;;;;;;;5.63;5.13;;;;;;;8.85;98.38;98385.31;5054124;28;20263;-79
2022/09/28 03:15:27;;;;;;;5.37;5.03;;;;;;;8.86;98.29;98393.97;5053484;28;20229;-78
2022/09/28 03:17:53;;;;;;;5.37;4.97;;;;;;;8.90;98.36;98392.91;5054214;28;20279;-78
2022/09/28 03:20:20;;;;;;;5.83;5.33;;;;;;;8.89;98.21;98386.03;5052775;28;20667;-78
2022/09/28 03:22:47;;;;;;;6.03;5.53;;;;;;;8.92;97.75;98397.16;5053909;28;20205;-78
2022/09/28 03:25:14;;;;;;;5.57;5.07;;;;;;;8.93;97.98;98396.22;5054749;28;20236;-78
2022/09/28 03:27:41;;;;;;;5.63;5.13;;;;;;;8.86;98.08;98391.38;5054994;28;20206;-78
2022/09/28 03:30:08;;;;;;;5.50;5.00;;;;;;;8.86;98.20;98388.75;5053649;28;20213;-78
2022/09/28 03:32:37;;;;;;;5.00;4.67;;;;;;;8.93;98.01;98383.22;5053858;28;20359;-79
2022/09/28 03:35:04;;;;;;;5.70;5.10;;;;;;;8.95;98.30;98388.34;5053342;28;20230;-78
2022/09/28 03:37:30;;;;;;;6.70;5.87;;;;;;;9.00;98.01;98388.13;5053536;28;20287;-78
2022/09/28 03:39:57;;;;;;;5.47;5.03;;;;;;;8.96;97.96;98387.47;5053616;28;20664;-78
2022/09/28 03:42:23;;;;;;;7.17;5.70;;;;;;;8.94;98.22;98381.47;5053062;28;20205;-78
2022/09/28 03:44:50;;;;;;;6.27;5.70;;;;;;;8.95;98.59;98368.38;5053206;28;20243;-78
2022/09/28 03:47:18;;;;;;;6.20;5.80;;;;;;;8.99;98.95;98369.09;5053257;28;20683;-78
2022/09/28 03:49:46;;;;;;;6.50;6.00;;;;;;;8.95;99.09;98362.34;5055486;28;20206;-78
2022/09/28 03:52:13;;;;;;;6.67;6.03;;;;;;;8.93;99.19;98354.59;5054727;28;20681;-79
2022/09/28 03:54:40;;;;;;;7.20;6.50;;;;;;;8.98;99.08;98351.81;5054588;28;20270;-79
2022/09/28 03:57:06;;;;;;;7.20;6.70;;;;;;;8.95;98.88;98350.16;5054643;28;20221;-80
2022/09/28 03:59:36;;;;;;;8.70;6.13;;;;;;;8.94;98.93;98358.06;5054660;28;20210;-78
2022/09/28 04:02:03;;;;;;;6.57;6.10;;;;;;;8.92;99.03;98342.50;5055013;28;20213;-78
2022/09/28 04:04:29;;;;;;;7.73;6.43;;;;;;;8.95;99.60;98339.75;5055741;28;20229;-78
2022/09/28 04:06:57;;;;;;;6.10;5.60;;;;;;;8.94;99.44;98339.84;5055091;28;20232;-78
2022/09/28 04:09:24;;;;;;;5.97;5.57;;;;;;;8.95;99.35;98331.13;5057529;28;20232;-78
2022/09/28 04:11:51;;;;;;;5.63;5.17;;;;;;;8.99;98.95;98329.22;5053654;28;20733;-78
2022/09/28 04:14:17;;;;;;;6.37;5.77;;;;;;;9.02;98.88;98335.13;5053516;28;20259;-80
2022/09/28 04:16:44;;;;;;;5.77;5.37;;;;;;;9.05;98.69;98341.94;5055708;28;20206;-79
2022/09/28 04:19:10;;;;;;;6.10;5.50;;;;;;;9.05;98.77;98339.34;5054772;28;20225;-78
2022/09/28 04:21:37;;;;;;;5.23;4.83;;;;;;;9.06;98.45;98344.47;5053108;28;20205;-78
2022/09/28 04:24:05;;;;;;;5.17;4.63;;;;;;;9.03;99.22;98336.81;5054427;28;20205;-79
2022/09/28 04:26:31;;;;;;;5.13;4.60;;;;;;;9.07;98.81;98338.34;5055793;28;20213;-79
2022/09/28 04:29:15;;;;;;;5.53;5.10;;;;;;;9.06;98.88;98339.28;5055124;28;20214;-78
2022/09/28 04:31:44;;;;;;;5.83;5.30;;;;;;;9.06;98.90;98334.06;5046634;28;20202;-78
2022/09/28 04:34:11;;;;;;;6.10;5.03;;;;;;;9.08;98.80;98334.84;5043219;28;20206;-79
2022/09/28 04:36:38;;;;;;;5.37;4.87;;;;;;;9.08;98.83;98339.22;5051883;28;20220;-78
2022/09/28 04:39:17;;;;;;;5.50;4.90;;;;;;;9.10;98.65;98330.41;5053342;28;20244;-79
2022/09/28 04:41:44;;;;;;;5.20;4.67;;;;;;;9.08;98.39;98339.22;5048308;28;20286;-78
2022/09/28 04:44:10;;;;;;;5.10;4.70;;;;;;;9.08;98.35;98339.22;5046070;28;20198;-79
2022/09/28 04:46:37;;;;;;;5.20;4.80;;;;;;;9.05;99.06;98334.13;5043489;28;20231;-79
2022/09/28 04:49:03;;;;;;;4.77;4.37;;;;;;;9.06;98.67;98325.44;5045935;28;20198;-79
2022/09/28 04:51:31;;;;;;;5.60;4.97;;;;;;;9.05;98.66;98339.34;5045800;28;20201;-79
2022/09/28 04:53:57;;;;;;;6.23;4.77;;;;;;;9.07;98.85;98333.13;5044067;28;20661;-78
2022/09/28 04:56:25;;;;;;;5.10;4.60;;;;;;;9.05;99.00;98318.53;5045415;28;20275;-79
2022/09/28 04:58:51;;;;;;;5.40;5.00;;;;;;;9.09;98.85;98327.88;5046655;28;20213;-79
2022/09/28 05:01:19;;;;;;;4.97;4.57;;;;;;;9.06;99.07;98318.47;5046218;28;20207;-79
2022/09/28 05:03:46;;;;;;;5.60;5.10;;;;;;;9.09;98.89;98323.50;5045875;28;20204;-78
2022/09/28 05:06:14;;;;;;;5.20;3.87;;;;;;;9.07;99.03;98322.72;5044911;28;20214;-78
2022/09/28 05:08:41;;;;;;;5.17;4.77;;;;;;;9.08;98.85;98323.59;5050089;28;20573;-78
2022/09/28 05:11:10;;;;;;;4.93;4.53;;;;;;;9.12;98.72;98319.94;5049387;28;20205;-79
2022/09/28 05:13:42;;;;;;;5.33;4.97;;;;;;;9.13;99.02;98325.03;5046402;28;20195;-79
2022/09/28 05:16:09;;;;;;;5.47;4.97;;;;;;;9.15;98.81;98328.41;5045658;28;20279;-79
2022/09/28 05:18:36;;;;;;;5.33;4.93;;;;;;;9.14;98.63;98325.91;5044020;28;20246;-78
2022/09/28 05:21:03;;;;;;;5.40;4.93;;;;;;;9.14;98.91;98326.75;5045455;28;20721;-78
2022/09/28 05:23:29;;;;;;;4.93;4.53;;;;;;;9.15;98.88;98323.19;5045390;28;20806;-79
2022/09/28 05:25:55;;;;;;;5.23;4.70;;;;;;;9.11;99.05;98326.88;5044234;28;20222;-79
2022/09/28 05:28:25;;;;;;;4.80;4.40;;;;;;;9.12;98.94;98320.75;5046102;28;20198;-79
2022/09/28 05:30:58;;;;;;;4.80;4.40;;;;;;;9.12;99.34;98314.72;5045695;28;20206;-79
2022/09/28 05:33:24;;;;;;;4.87;4.47;;;;;;;9.13;99.23;98316.41;5045668;28;20247;-78
2022/09/28 05:35:51;;;;;;;4.97;4.10;;;;;;;9.14;99.02;98311.13;5045481;28;20283;-79
2022/09/28 05:38:17;;;;;;;6.00;5.40;;;;;;;9.13;99.36;98319.84;5050717;28;20226;-79
2022/09/28 05:40:44;;;;;;;5.10;4.60;;;;;;;9.15;99.25;98315.41;5053963;28;20201;-78
2022/09/28 05:43:10;;;;;;;5.07;4.67;;;;;;;9.17;98.82;98312.72;5056321;28;20214;-79
2022/09/28 05:45:37;;;;;;;5.87;5.30;;;;;;;9.21;98.79;98321.25;5059786;28;20229;-79
2022/09/28 05:48:05;;;;;;;5.00;4.57;;;;;;;9.18;98.56;98319.63;5059758;28;20206;-79
2022/09/28 05:50:31;;;;;;;5.20;4.80;;;;;;;9.15;98.85;98322.38;5059859;28;20298;-79
2022/09/28 05:52:59;;;;;;;5.17;4.77;;;;;;;9.10;99.58;98313.97;5058859;28;20213;-79
2022/09/28 05:55:25;;;;;;;5.20;4.80;;;;;;;9.15;99.44;98306.75;5059777;28;20254;-79
2022/09/28 05:57:52;;;;;;;4.93;4.27;;;;;;;9.17;99.12;98312.72;5060206;28;20291;-79
2022/09/28 06:00:18;;;;;;;5.07;4.57;;;;;;;9.21;99.39;98314.25;5059602;28;20201;-79
2022/09/28 06:02:45;;;;;;;4.83;4.53;;;;;;;9.19;99.15;98320.47;5060016;28;20202;-79
2022/09/28 06:05:12;;;;;;;5.50;5.00;;;;;;;9.20;99.29;98312.59;5059812;28;20229;-79
2022/09/28 06:07:39;;;;;;;5.30;4.80;;;;;;;9.25;99.35;98320.19;5059363;28;20683;-79
2022/09/28 06:10:06;;;;;;;4.83;4.33;;;;;;;9.23;99.25;98317.63;5058870;28;20198;-79
2022/09/28 06:12:33;;;;;;;5.00;4.17;;;;;;;9.27;99.30;98320.94;5057880;28;20210;-78
2022/09/28 06:15:00;;;;;;;5.47;4.97;;;;;;;9.25;99.48;98323.63;5058382;28;20703;-78
2022/09/28 06:17:26;;;;;;;5.17;4.67;;;;;;;9.25;99.36;98322.78;5048677;28;20229;-79
2022/09/28 06:19:53;;;;;;;5.30;4.80;;;;;;;9.21;99.49;98316.88;5050154;28;20214;-78
2022/09/28 06:22:20;;;;;;;5.33;4.87;;;;;;;9.25;99.61;98315.81;5049054;28;20271;-79
2022/09/28 06:24:47;;;;;;;4.63;4.23;;;;;;;9.27;99.88;98316.56;5050032;28;20227;-79
2022/09/28 06:27:13;;;;;;;4.57;4.17;;;;;;;9.27;99.63;98319.19;5053085;28;20236;-78
2022/09/28 06:29:39;;;;;;;4.77;4.37;;;;;;;9.28;99.65;98322.66;5058981;28;20218;-79
2022/09/28 06:32:07;;;;;;;4.17;3.77;;;;;;;9.28;98.95;98330.47;5058236;28;20253;-79
2022/09/28 06:34:33;;;;;;;4.43;4.03;;;;;;;9.31;98.85;98333.72;5058497;28;20261;-79
2022/09/28 06:37:03;;;;;;;3.57;3.37;;;;;;;9.31;99.56;98336.34;5058267;28;20209;-79
2022/09/28 06:39:31;;;;;;;4.30;4.00;;;;;;;9.33;98.79;98331.06;5054772;28;20218;-79
2022/09/28 06:41:57;;;;;;;3.90;3.60;;;;;;;9.28;98.76;98344.31;5050085;28;20232;-79
2022/09/28 06:44:24;;;;;;;3.97;3.67;;;;;;;9.00;98.11;98354.31;5048045;28;20241;-78
2022/09/28 06:46:51;;;;;;;4.27;3.97;;;;;;;8.94;98.41;98365.88;5048265;28;20221;-79
2022/09/28 06:49:18;;;;;;;5.03;4.63;;;;;;;8.99;98.75;98355.25;5047526;28;20217;-78
2022/09/28 06:51:45;;;;;;;4.27;3.97;;;;;;;8.71;98.92;98361.69;5048104;28;20668;-79
2022/09/28 06:54:12;;;;;;;4.77;4.47;;;;;;;8.79;99.47;98343.97;5047797;28;20584;-79
2022/09/28 06:56:40;;;;;;;4.37;4.07;;;;;;;8.84;99.45;98330.75;5045937;28;20237;-78
2022/09/28 06:59:06;;;;;;;4.63;3.77;;;;;;;8.49;100.00;98328.00;5048099;28;20328;-79
2022/09/28 07:01:32;;;;;;;3.93;3.67;;;;;;;8.35;100.00;98300.81;5047810;28;20225;-78
2022/09/28 07:04:00;;;;;;;4.37;4.07;;;;;;;8.20;100.00;98270.31;5039980;28;20256;-78
2022/09/28 07:06:30;;;;;;;4.30;4.00;;;;;;;8.11;100.00;98245.59;5037922;28;20226;-80
2022/09/28 07:08:58;;;;;;;3.80;3.50;;;;;;;7.91;100.00;98235.25;5057995;28;20198;-80
2022/09/28 07:11:25;;;;;;;4.07;3.77;;;;;;;7.73;100.00;98211.75;5056655;28;20206;-77
2022/09/28 07:13:53;;;;;;;2.80;2.60;;;;;;;7.53;100.00;98216.94;5052774;28;20225;-77
2022/09/28 07:16:19;;;;;;;1.77;1.67;;;;;;;7.51;100.00;98227.41;5045855;28;20644;-77
2022/09/28 07:18:46;;;;;;;2.17;2.07;;;;;;;7.63;100.00;98235.56;5046083;28;20272;-77
2022/09/28 07:21:12;;;;;;;2.10;2.00;;;;;;;7.67;100.00;98235.38;5045395;28;20202;-78
2022/09/28 07:23:40;;;;;;;2.30;2.20;;;;;;;7.85;100.00;98240.66;5044754;28;20206;-77
2022/09/28 07:26:07;;;;;;;2.50;2.40;;;;;;;7.84;100.00;98239.00;5045878;28;20213;-78
2022/09/28 07:28:33;;;;;;;3.50;3.20;;;;;;;7.86;100.00;98242.38;5045436;28;20228;-77
2022/09/28 07:31:02;;;;;;;3.60;3.30;;;;;;;7.81;100.00;98249.50;5044104;28;20256;-77
2022/09/28 07:33:30;;;;;;;2.40;2.30;;;;;;;7.82;100.00;98257.25;5043098;28;20452;-77
2022/09/28 07:35:56;;;;;;;2.50;2.40;;;;;;;7.69;100.00;98275.13;5044272;28;20277;-77
2022/09/28 07:38:24;;;;;;;2.43;2.30;;;;;;;7.66;100.00;98283.00;5049721;28;20261;-77
2022/09/28 07:43:35;;;;;;;3.33;3.13;;;;;;;7.67;100.00;98276.06;5044758;28;20279;-78
2022/09/28 07:46:03;;;;;;;3.60;3.30;;;;;;;7.58;100.00;98274.72;5034017;28;20280;-77
2022/09/28 07:48:36;;;;;;;3.77;3.47;;;;;;;7.66;100.00;98279.59;5034433;28;20210;-78
2022/09/28 07:51:03;;;;;;;3.90;3.70;;;;;;;7.56;100.00;98287.75;5034245;28;20296;-77
2022/09/28 07:53:29;;;;;;;4.17;3.87;;;;;;;7.62;100.00;98283.22;5037182;28;20193;-77
2022/09/28 07:56:05;;;;;;;5.57;5.13;;;;;;;7.63;100.00;98296.16;5043872;28;20306;-77
2022/09/28 07:58:32;;;;;;;5.73;5.33;;;;;;;7.66;100.00;98293.41;5044178;28;20227;-77
2022/09/28 08:01:02;;;;;;;6.07;5.57;;;;;;;7.73;100.00;98299.16;5044120;28;20214;-77
2022/09/28 08:03:30;;;;;;;6.40;5.90;;;;;;;7.75;100.00;98306.00;5046474;28;20197;-78
2022/09/28 08:06:00;;;;;;;6.50;6.00;;;;;;;7.74;100.00;98309.50;5035732;28;20230;-80
2022/09/28 08:08:28;;;;;;;6.87;6.30;;;;;;;7.70;100.00;98315.72;5052128;28;20201;-79
2022/09/28 08:10:55;;;;;;;7.23;6.57;;;;;;;7.68;100.00;98312.34;5054994;28;20554;-78
2022/09/28 08:13:24;;;;;;;7.40;6.70;;;;;;;7.71;100.00;98324.38;5055697;28;20261;-78
2022/09/28 08:15:50;;;;;;;7.70;7.00;;;;;;;7.73;100.00;98333.81;5053359;28;20316;-77
2022/09/28 08:18:17;;;;;;;7.50;6.90;;;;;;;7.72;100.00;98336.44;5050839;28;20206;-77
2022/09/28 08:23:36;;;;;;;7.67;7.07;;;;;;;7.85;100.00;98332.44;5028739;28;20251;-78
2022/09/28 08:26:02;;;;;;;8.03;7.33;;;;;;;8.02;100.00;98344.72;5036506;28;20221;-77
2022/09/28 08:28:28;;;;;;;7.33;6.73;;;;;;;8.09;100.00;98346.16;5033023;28;20221;-77
2022/09/28 08:30:55;;;;;;;7.80;7.20;;;;;;;8.18;100.00;98346.66;5031884;28;20206;-77
2022/09/28 08:33:21;;;;;;;8.07;7.47;;;;;;;8.24;100.00;98354.19;5032333;28;20206;-77
2022/09/28 08:35:56;;;;;;;8.57;7.63;;;;;;;8.40;100.00;98363.00;5031823;28;20303;-77
2022/09/28 08:38:22;;;;;;;7.97;7.23;;;;;;;8.50;100.00;98379.09;5046778;28;20212;-77
2022/09/28 08:41:02;;;;;;;8.07;7.37;;;;;;;8.59;100.00;98396.88;5051757;28;20255;-77
2022/09/28 08:44:02;;;;;;;6.63;6.03;;;;;;;8.70;100.00;98410.28;5051916;28;20212;-77
2022/09/28 08:46:33;;;;;;;7.37;6.87;;;;;;;8.82;100.00;98411.50;5048099;28;20286;-78
2022/09/28 08:49:06;;;;;;;5.87;5.47;;;;;;;8.84;100.00;98409.66;5051992;28;20216;-77
2022/09/28 08:51:42;;;;;;;6.93;6.40;;;;;;;8.85;100.00;98424.34;5051984;28;20655;-77
2022/09/28 08:54:22;;;;;;;6.73;6.23;;;;;;;8.94;100.00;98438.72;5051910;28;20262;-77
2022/09/28 08:56:52;;;;;;;6.27;5.77;;;;;;;9.09;100.00;98450.19;5051451;28;20259;-78
2022/09/28 08:59:23;;;;;;;5.97;5.57;;;;;;;9.00;100.00;98481.81;5051982;28;20279;-77
2022/09/28 09:01:54;;;;;;;6.90;6.40;;;;;;;8.88;100.00;98484.06;5051529;28;20232;-77
2022/09/28 09:04:21;;;;;;;7.77;7.07;;;;;;;8.88;100.00;98493.59;5051363;28;20257;-77
2022/09/28 09:07:07;;;;;;;7.50;6.90;;;;;;;8.58;100.00;98496.59;5051241;28;20734;-77
2022/09/28 09:09:47;;;;;;;7.03;6.27;;;;;;;8.69;100.00;98484.00;5051443;28;20251;-77
2022/09/28 09:12:21;;;;;;;6.17;5.67;;;;;;;8.64;100.00;98483.38;5051709;28;20740;-77
2022/09/28 09:15:07;;;;;;;5.83;5.43;;;;;;;8.73;100.00;98492.53;5051319;28;20720;-77
2022/09/28 09:17:45;;;;;;;6.00;5.60;;;;;;;8.61;100.00;98534.66;5050792;28;20201;-78
2022/09/28 09:20:19;;;;;;;6.93;6.33;;;;;;;8.75;100.00;98522.75;5051550;28;20232;-78
2022/09/28 09:22:58;;;;;;;5.70;5.30;;;;;;;8.80;100.00;98527.78;5052381;28;20271;-77
2022/09/28 09:25:28;;;;;;;5.53;4.63;;;;;;;8.77;99.73;98542.66;5050782;28;20228;-77
2022/09/28 09:30:57;;;;;;;5.80;5.30;;;;;;;8.89;100.00;98555.16;5098580;27;20549;-78
2022/09/28 09:33:50;;;;;;;5.37;4.97;;;;;;;8.57;100.00;98546.09;5100653;28;20200;-78
2022/09/28 09:36:39;;;;;;;5.17;4.87;;;;;;;8.48;100.00;98542.97;5096879;28;20235;-78
2022/09/28 09:39:21;;;;;;;4.03;3.73;;;;;;;8.52;98.71;98580.06;5092505;28;20196;-78
2022/09/28 09:42:04;;;;;;;3.60;3.40;;;;;;;8.69;98.94;98587.22;5097613;28;20272;-77
2022/09/28 09:45:00;;;;;;;4.17;3.80;;;;;;;8.74;97.84;98586.13;5091878;28;20798;-77
2022/09/28 09:47:35;;;;;;;3.50;3.27;;;;;;;8.93;96.91;98613.97;5089793;28;20204;-78
2022/09/28 09:50:10;;;;;;;3.60;3.30;;;;;;;9.10;95.42;98631.47;5091318;28;20713;-78
2022/09/28 09:52:47;;;;;;;3.53;3.23;;;;;;;9.05;93.04;98711.50;5091812;28;20306;-78
2022/09/28 09:55:20;;;;;;;3.83;3.53;;;;;;;9.26;92.96;98721.03;5092704;28;20224;-82
2022/09/28 09:57:50;;;;;;;2.80;2.60;;;;;;;9.12;91.44;98780.63;5093451;28;20208;-78
2022/09/28 10:00:17;;;;;;;3.57;3.37;;;;;;;9.11;91.89;98777.16;5093984;28;20207;-79
2022/09/28 10:02:48;;;;;;;4.30;4.00;;;;;;;9.24;93.26;98740.25;5092391;28;20698;-78
2022/09/28 10:05:20;;;;;;;3.60;3.40;;;;;;;9.24;92.07;98777.53;5091132;28;20225;-78
2022/09/28 10:07:53;;;;;;;4.60;4.17;;;;;;;9.23;89.76;98814.03;5084697;28;20205;-78
2022/09/28 10:10:24;;;;;;;4.27;3.97;;;;;;;9.35;91.68;98800.50;5092848;28;20633;-78
2022/09/28 10:12:51;;;;;;;4.07;3.87;;;;;;;9.61;91.90;98775.16;5092660;28;20270;-79
2022/09/28 10:15:22;;;;;;;6.60;6.10;;;;;;;9.80;91.52;98780.47;5092147;28;20727;-79
2022/09/28 10:17:50;;;;;;;4.63;4.33;;;;;;;9.79;89.68;98818.69;5093351;28;20214;-79
2022/09/28 10:20:27;;;;;;;4.73;4.43;;;;;;;9.68;89.76;98833.94;5092060;28;20204;-78
2022/09/28 10:23:00;;;;;;;4.30;4.00;;;;;;;9.73;89.81;98814.59;5091658;28;20269;-79
2022/09/28 10:25:27;;;;;;;5.93;5.43;;;;;;;9.66;89.34;98841.78;5092696;28;20224;-79
2022/09/28 10:27:55;;;;;;;6.03;5.63;;;;;;;9.71;89.49;98839.00;5092765;28;20257;-79
2022/09/28 10:30:23;;;;;;;6.57;6.07;;;;;;;9.61;88.99;98837.69;5092155;28;20286;-79
2022/09/28 10:32:57;;;;;;;6.17;5.67;;;;;;;9.68;89.69;98833.94;5092472;28;20254;-79
2022/09/28 10:35:26;;;;;;;6.13;5.73;;;;;;;9.74;90.01;98833.66;5093026;28;20343;-79
2022/09/28 10:37:56;;;;;;;5.37;4.97;;;;;;;9.56;89.79;98822.25;5085748;28;20204;-79
2022/09/28 10:40:32;;;;;;;8.73;8.03;;;;;;;9.80;89.46;98820.38;5088741;28;20249;-78
2022/09/28 10:43:01;;;;;;;7.00;6.50;;;;;;;9.53;90.56;98811.94;5078676;28;20291;-79
2022/09/28 10:45:32;;;;;;;5.33;5.00;;;;;;;9.73;89.47;98805.91;5079364;28;20256;-79
2022/09/28 10:48:02;;;;;;;6.43;5.83;;;;;;;9.96;89.16;98819.75;5079984;28;20213;-79
2022/09/28 10:50:29;;;;;;;3.50;3.30;;;;;;;10.01;87.47;98856.88;5079260;28;20247;-79
2022/09/28 10:53:11;;;;;;;3.50;3.30;;;;;;;10.02;86.57;98898.53;5079567;28;20209;-79
2022/09/28 10:55:37;;;;;;;2.83;2.30;;;;;;;9.97;84.84;98950.00;5079252;28;20232;-79
2022/09/28 10:58:24;;;;;;;5.73;2.80;;;;;;;10.14;86.21;98937.13;5079201;28;20208;-79
2022/09/28 11:00:51;;;;;;;3.77;3.50;;;;;;;10.15;84.33;98937.97;5078323;28;20621;-79
2022/09/28 11:03:22;;;;;;;3.00;2.80;;;;;;;9.86;84.33;98981.69;5078431;28;20665;-79
2022/09/28 11:05:54;;;;;;;2.93;2.73;;;;;;;9.94;84.86;98963.16;5079284;28;20228;-79
2022/09/28 11:08:27;;;;;;;2.90;2.70;;;;;;;9.61;85.81;98932.31;5072032;28;20235;-78
2022/09/28 11:11:09;;;;;;;3.10;2.90;;;;;;;9.63;86.66;98911.41;5070225;28;20259;-78
2022/09/28 11:13:44;;;;;;;2.90;2.70;;;;;;;9.68;86.22;98906.88;5076972;28;20220;-79
2022/09/28 11:16:21;;;;;;;3.00;2.67;;;;;;;9.78;85.15;98913.41;5077487;28;20225;-78
2022/09/28 11:18:49;;;;;;;2.10;2.00;;;;;;;9.78;84.66;98962.91;5077812;28;20238;-78
2022/09/28 11:21:17;;;;;;;2.67;1.80;;;;;;;9.79;83.39;98962.03;5077960;28;20224;-78
2022/09/28 11:23:56;;;;;;;3.20;3.00;;;;;;;10.08;84.80;98971.25;5077550;28;20201;-79
2022/09/28 11:26:22;;;;;;;2.90;2.70;;;;;;;9.97;83.50;98965.66;5077138;28;20229;-78
2022/09/28 11:28:51;;;;;;;2.60;2.40;;;;;;;9.82;83.39;99006.19;5076242;28;20618;-77
2022/09/28 11:31:26;;;;;;;2.90;2.70;;;;;;;10.36;83.75;98964.09;5076434;28;20225;-79
2022/09/28 11:34:04;;;;;;;2.70;2.50;;;;;;;11.84;79.19;99052.47;5078064;28;20265;-79
2022/09/28 11:36:44;;;;;;;2.43;2.33;;;;;;;12.14;74.82;99217.63;5076919;28;20233;-79
2022/09/28 11:39:16;;;;;;;1.70;1.60;;;;;;;11.81;71.91;99324.50;5072095;28;20332;-78
2022/09/28 11:41:53;;;;;;;2.13;2.03;;;;;;;10.79;73.11;99359.88;5075628;28;20203;-78
2022/09/28 11:44:40;;;;;;;1.80;1.70;;;;;;;11.62;74.04;99327.06;5075517;28;21013;-78
2022/09/28 11:47:46;;;;;;;1.70;1.60;;;;;;;12.31;69.20;99379.09;5075865;28;20202;-79
2022/09/28 11:50:26;;;;;;;1.53;1.53;;;;;;;11.09;70.55;99446.66;5070377;28;20229;-79
2022/09/28 11:53:01;;;;;;;1.70;1.60;;;;;;;11.06;71.17;99415.44;5074687;28;20205;-78
2022/09/28 11:55:34;;;;;;;1.70;1.60;;;;;;;11.77;71.11;99380.44;5075233;28;20225;-79
2022/09/28 11:58:08;;;;;;;1.80;1.70;;;;;;;11.60;69.31;99431.66;5075941;28;20208;-78
2022/09/28 12:00:42;;;;;;;1.70;1.60;;;;;;;12.11;69.00;99429.66;5075283;28;20668;-79
2022/09/28 12:03:14;;;;;;;1.70;1.60;;;;;;;12.66;67.91;99479.63;5075887;28;20194;-79